Terminal Aerodrome Forecast
Issued by NWS

Home | Current Version | Previous Version | Text Only | Print | Product List | Glossary On
Versions: 1 2 3 4 5 6 7 8 9 10 11 12
807
FTUS46 KPDT 272320
TAFYKM
TAF
KYKM 272320Z 2800/2824 VRB06KT P6SM FEW200
     FM280300 30006KT P6SM FEW120 BKN200
     FM282100 VRB04KT P6SM FEW200=

USA.gov is the U.S. government's official web portal to all federal, state and local government web resources and services.